Impacts METAR Board
IDs:

KHDC - Hammond/Northshore R, LA, US

Updated at: 0600 UTC 24 Jan 2019
Potential Impact None Slight Moderate High
Time 23/18Z 23/19Z 23/20Z 23/21Z 23/22Z 23/23Z 24/00Z 24/01Z 24/02Z 24/03Z 24/04Z 24/05Z 24/06Z
Temp55 54 54 54 54 54 46 41 39 37 36 36 36
Dewpt54 54 52 54 52 52 46 39 36 36 34 32 32
Altim29.92 29.89 29.88 29.87 29.85 29.90 29.92 29.97 29.97 29.99 30.04 30.05 30.04
VIS4 4 10 5 10 10 7 10 10 10 10 10 10
CIG9 7 8 48 60 12 8 25 10 7 9 13 13
CoverOVCOVCOVCOVCOVCOVCOVCOVCOVCOVCOVCOVCOVC
FltCatIFRIFRIFRMVFRVFRMVFRIFRMVFRMVFRIFRIFRMVFRMVFR
WX+RARA--DZ-DZ---RA------------
WDir33036010350330300310310330310330320330
WSpd11 7 6 4 4 7 18 11 10 11 13 12 9
WGst16 -- -- -- -- -- 25 16 20 21 19 16 15
Raw hourly METARs
KHDC 231755Z AUTO 33011G16KT 4SM +RA BKN009 BKN015 OVC028 13/12 A2992 RMK AO2 LTG DSNT E
KHDC 231855Z AUTO 36007KT 4SM RA BKN007 OVC013 12/12 A2989 RMK AO2 LTG DSNT NE THRU SW
KHDC 231955Z AUTO 01006KT 10SM BKN008 BKN015 OVC050 12/11 A2988 RMK AO2 LTG DSNT S
KHDC 232055Z AUTO 35004KT 5SM DZ SCT008 BKN048 OVC050 12/12 A2987 RMK AO2 LTG DSNT SE
KHDC 232155Z AUTO 33004KT 10SM -DZ SCT006 BKN060 OVC090 12/11 A2985 RMK AO2 LTG DSNT S
KHDC 232255Z AUTO 30007KT 10SM SCT006 BKN012 OVC018 12/11 A2990 RMK AO2 P0001
KHDC 232355Z AUTO 31018G25KT 7SM -RA OVC008 08/08 A2992 RMK AO2
KHDC 240055Z AUTO 31011G16KT 10SM SCT012 BKN025 OVC042 05/04 A2997 RMK AO2
KHDC 240155Z AUTO 33010G20KT 10SM OVC010 04/02 A2997 RMK AO2
KHDC 240255Z AUTO 31011G21KT 10SM OVC007 03/02 A2999 RMK AO2
KHDC 240355Z AUTO 33013G19KT 10SM OVC009 02/01 A3004 RMK AO2
KHDC 240455Z AUTO 32012G16KT 10SM OVC013 02/00 A3005 RMK AO2
KHDC 240555Z AUTO 33009G15KT 10SM OVC013 02/00 A3004 RMK AO2



Page loaded:  06:49 UTC  |   10:49 PM Pacific  |   11:49 PM Mountain  |   12:49 AM Central  |   01:49 AM Eastern

 

ADVISORIES

FORECASTS

FORECASTS

OBSERVATIONS

USER TOOLS

ABOUT US